createdAt,value
2023-05-20T00:02:18.245Z,99360.79
2023-05-20T00:04:45.475Z,99361.30
2023-05-20T00:07:12.842Z,99361.92
2023-05-20T00:09:40.151Z,99364.82
2023-05-20T00:12:07.241Z,99369.44
2023-05-20T00:14:35.018Z,99366.88
2023-05-20T00:17:02.094Z,99373.29
2023-05-20T00:19:29.479Z,99377.30
2023-05-20T00:21:58.081Z,99371.98
2023-05-20T00:24:25.477Z,99375.23
2023-05-20T00:26:52.519Z,99375.39
2023-05-20T00:29:21.185Z,99376.58
2023-05-20T00:31:49.401Z,99374.95
2023-05-20T00:34:16.491Z,99372.46
2023-05-20T00:36:43.429Z,99377.75
2023-05-20T00:39:10.559Z,99376.02
2023-05-20T00:41:37.636Z,99379.84
2023-05-20T00:44:04.818Z,99378.90
2023-05-20T00:46:32.157Z,99377.10
2023-05-20T00:48:59.353Z,99380.27
2023-05-20T00:51:26.407Z,99378.92
2023-05-20T00:53:53.933Z,99378.05
2023-05-20T00:56:22.185Z,99376.23
2023-05-20T00:58:50.118Z,99374.54
2023-05-20T01:01:17.383Z,99374.09
2023-05-20T01:03:44.903Z,99372.18
2023-05-20T01:06:12.381Z,99375.33
2023-05-20T01:08:40.489Z,99373.09
2023-05-20T01:11:11.618Z,99373.80
2023-05-20T01:13:45.051Z,99369.20
2023-05-20T01:16:12.222Z,99367.96
2023-05-20T01:18:39.471Z,99367.14
2023-05-20T01:21:07.003Z,99365.75
2023-05-20T01:23:43.273Z,99369.89
2023-05-20T01:26:13.815Z,99366.61
2023-05-20T01:28:43.894Z,99364.55
2023-05-20T01:31:33.234Z,99365.77
2023-05-20T01:34:01.940Z,99364.73
2023-05-20T01:36:29.627Z,99364.34
2023-05-20T01:38:56.853Z,99364.59
2023-05-20T01:41:24.379Z,99365.84
2023-05-20T01:43:51.891Z,99365.47
2023-05-20T01:46:20.134Z,99363.13
2023-05-20T01:48:48.855Z,99361.35
2023-05-20T01:51:18.091Z,99365.96
2023-05-20T01:53:45.368Z,99370.27
2023-05-20T01:56:12.479Z,99363.48
2023-05-20T01:58:39.620Z,99365.17
2023-05-20T02:01:06.885Z,99367.23
2023-05-20T02:03:34.687Z,99365.54
2023-05-20T02:06:01.815Z,99372.18
2023-05-20T02:08:30.052Z,99372.98
2023-05-20T02:10:57.143Z,99376.27
2023-05-20T02:13:24.134Z,99375.11
2023-05-20T02:15:52.366Z,99380.79
2023-05-20T02:18:19.455Z,99384.80
2023-05-20T02:20:46.791Z,99384.40
2023-05-20T02:23:14.536Z,99384.20
2023-05-20T02:25:42.006Z,99384.08
2023-05-20T02:28:13.152Z,99389.45
2023-05-20T02:30:40.520Z,99389.88
2023-05-20T02:33:09.326Z,99386.58
2023-05-20T02:35:37.154Z,99380.98
2023-05-20T02:38:04.185Z,99383.52
2023-05-20T02:40:31.956Z,99383.43
2023-05-20T02:43:00.728Z,99384.85
2023-05-20T02:45:27.980Z,99385.64
2023-05-20T02:47:55.094Z,99391.73
2023-05-20T02:50:22.186Z,99387.56
2023-05-20T02:52:49.453Z,99389.88
2023-05-20T02:55:17.111Z,99393.75
2023-05-20T02:57:44.146Z,99391.27
2023-05-20T03:00:11.648Z,99393.40
2023-05-20T03:02:39.492Z,99395.79
2023-05-20T03:05:08.071Z,99397.41
2023-05-20T03:07:36.491Z,99399.07
2023-05-20T03:10:06.732Z,99399.73
2023-05-20T03:12:33.950Z,99396.83
2023-05-20T03:15:01.374Z,99397.69
2023-05-20T03:17:28.982Z,99398.88
2023-05-20T03:19:57.111Z,99396.05
2023-05-20T03:22:24.546Z,99397.96
2023-05-20T03:24:53.047Z,99394.79
2023-05-20T03:27:22.046Z,99395.64
2023-05-20T03:29:49.086Z,99397.08
2023-05-20T03:32:17.361Z,99399.77
2023-05-20T03:34:44.527Z,99398.21
2023-05-20T03:37:11.563Z,99399.27
2023-05-20T03:39:38.716Z,99400.16
2023-05-20T03:42:06.006Z,99405.55
2023-05-20T03:44:33.717Z,99408.91
2023-05-20T03:47:00.992Z,99409.59
2023-05-20T03:49:28.215Z,99409.06
2023-05-20T03:51:55.787Z,99410.14
2023-05-20T03:54:23.059Z,99411.67
2023-05-20T03:56:52.031Z,99412.22
2023-05-20T03:59:19.633Z,99411.53
2023-05-20T04:01:47.088Z,99417.08
2023-05-20T04:04:14.377Z,99416.15
2023-05-20T04:06:42.058Z,99416.84
2023-05-20T04:09:09.745Z,99416.43
2023-05-20T04:11:36.836Z,99417.84
2023-05-20T04:14:04.039Z,99416.23
2023-05-20T04:16:31.275Z,99420.75
2023-05-20T04:18:59.524Z,99423.80
2023-05-20T04:21:26.720Z,99423.11
2023-05-20T04:23:53.948Z,99421.71
2023-05-20T04:26:21.174Z,99424.83
2023-05-20T04:28:51.256Z,99424.56
2023-05-20T04:31:18.809Z,99423.93
2023-05-20T04:33:46.886Z,99424.73
2023-05-20T04:36:16.458Z,99423.04
2023-05-20T04:38:45.312Z,99425.95
2023-05-20T04:41:12.335Z,99425.11
2023-05-20T04:43:40.414Z,99425.94
2023-05-20T04:46:08.251Z,99421.64
2023-05-20T04:48:35.598Z,99427.04
2023-05-20T04:51:02.684Z,99426.98
2023-05-20T04:53:31.882Z,99427.80
2023-05-20T04:55:58.883Z,99433.09
2023-05-20T04:58:25.935Z,99433.80
2023-05-20T05:00:53.167Z,99433.48
2023-05-20T05:03:20.252Z,99434.76
2023-05-20T05:05:48.443Z,99431.14
2023-05-20T05:08:16.791Z,99430.16
2023-05-20T05:10:48.521Z,99435.94
2023-05-20T05:13:17.000Z,99432.92
2023-05-20T05:15:44.126Z,99435.41
2023-05-20T05:18:12.225Z,99434.10
2023-05-20T05:20:39.469Z,99431.92
2023-05-20T05:23:07.221Z,99431.04
2023-05-20T05:25:34.844Z,99430.37
2023-05-20T05:28:02.053Z,99427.73
2023-05-20T05:30:29.367Z,99427.97
2023-05-20T05:32:56.655Z,99426.53
2023-05-20T05:35:24.632Z,99429.21
2023-05-20T05:37:51.777Z,99427.35
2023-05-20T05:40:18.874Z,99426.16
2023-05-20T05:42:46.888Z,99423.98
2023-05-20T05:45:14.318Z,99425.64
2023-05-20T05:47:42.773Z,99425.77
2023-05-20T05:50:10.441Z,99430.61
2023-05-20T05:52:38.134Z,99426.04
2023-05-20T05:55:07.159Z,99429.19
2023-05-20T05:57:35.719Z,99426.36
2023-05-20T06:00:04.609Z,99423.91
2023-05-20T06:02:47.744Z,99419.23
2023-05-20T06:05:23.699Z,99421.98
2023-05-20T06:07:53.732Z,99422.60
2023-05-20T06:10:20.898Z,99423.84
2023-05-20T06:12:47.950Z,99417.46
2023-05-20T06:15:15.355Z,99417.18
2023-05-20T06:17:42.614Z,99412.34
2023-05-20T06:20:10.167Z,99408.20
2023-05-20T06:22:37.510Z,99410.63
2023-05-20T06:25:06.344Z,99407.36
2023-05-20T06:27:36.260Z,99405.79
2023-05-20T06:30:04.384Z,99405.78
2023-05-20T06:32:32.291Z,99402.21
2023-05-20T06:34:59.621Z,99407.89
2023-05-20T06:37:26.883Z,99404.14
2023-05-20T06:39:54.236Z,99402.02
2023-05-20T06:42:21.623Z,99402.06
2023-05-20T06:45:02.464Z,99396.16
2023-05-20T06:47:50.070Z,99393.69
2023-05-20T06:50:17.514Z,99393.95
2023-05-20T06:52:44.879Z,99390.61
2023-05-20T06:55:13.152Z,99396.04
2023-05-20T06:57:40.673Z,99396.42
2023-05-20T07:00:09.226Z,99395.13
2023-05-20T07:02:40.832Z,99400.41
2023-05-20T07:05:08.310Z,99402.59
2023-05-20T07:07:36.006Z,99401.09
2023-05-20T07:10:06.317Z,99399.92
2023-05-20T07:12:36.522Z,99393.32
2023-05-20T07:15:04.540Z,99391.94
2023-05-20T07:17:32.605Z,99394.21
2023-05-20T07:19:59.745Z,99393.58
2023-05-20T07:22:27.319Z,99392.44
2023-05-20T07:25:08.541Z,99384.60
2023-05-20T07:27:37.863Z,99383.33
2023-05-20T07:30:05.632Z,99381.80
2023-05-20T07:32:35.531Z,99385.73
2023-05-20T07:35:03.085Z,99382.54
2023-05-20T07:37:30.257Z,99380.08
2023-05-20T07:39:57.429Z,99380.45
2023-05-20T07:42:24.651Z,99382.23
2023-05-20T07:44:56.472Z,99380.13
2023-05-20T07:47:23.508Z,99381.20
2023-05-20T07:49:50.645Z,99380.29
2023-05-20T07:52:17.688Z,99378.01
2023-05-20T07:54:45.778Z,99374.28
2023-05-20T07:57:13.100Z,99374.20
2023-05-20T07:59:41.288Z,99374.33
2023-05-20T08:02:08.677Z,99372.75
2023-05-20T08:04:37.060Z,99373.14
2023-05-20T08:07:04.251Z,99369.56
2023-05-20T08:09:40.973Z,99368.39
2023-05-20T08:12:08.250Z,99367.58
2023-05-20T08:14:35.957Z,99365.30
2023-05-20T08:17:03.853Z,99362.48
2023-05-20T08:19:31.249Z,99365.80
2023-05-20T08:21:58.598Z,99365.96
2023-05-20T08:24:25.657Z,99368.06
2023-05-20T08:26:53.701Z,99360.46
2023-05-20T08:29:22.493Z,99356.00
2023-05-20T08:31:49.757Z,99360.68
2023-05-20T08:34:16.994Z,99359.57
2023-05-20T08:36:45.270Z,99358.39
2023-05-20T08:39:12.636Z,99353.88
2023-05-20T08:41:39.867Z,99358.18
2023-05-20T08:44:07.065Z,99354.92
2023-05-20T08:46:36.193Z,99354.09
2023-05-20T08:49:03.604Z,99356.12
2023-05-20T08:51:31.177Z,99349.55
2023-05-20T08:53:59.911Z,99347.96
2023-05-20T08:56:30.026Z,99346.77
2023-05-20T08:58:58.119Z,99348.07
2023-05-20T09:01:26.223Z,99345.98
2023-05-20T09:03:53.357Z,99343.38
2023-05-20T09:06:20.874Z,99340.86
2023-05-20T09:08:53.836Z,99347.15
2023-05-20T09:11:22.864Z,99348.16
2023-05-20T09:13:50.573Z,99343.45
2023-05-20T09:16:17.681Z,99340.69
2023-05-20T09:18:44.692Z,99339.53
2023-05-20T09:21:12.411Z,99337.31
2023-05-20T09:23:39.808Z,99334.84
2023-05-20T09:26:07.079Z,99326.57
2023-05-20T09:28:36.135Z,99326.80
2023-05-20T09:31:03.164Z,99328.08
2023-05-20T09:33:32.139Z,99322.59
2023-05-20T09:36:09.102Z,99321.33
2023-05-20T09:38:40.075Z,99321.93
2023-05-20T09:41:18.044Z,99325.27
2023-05-20T09:43:45.022Z,99323.05
2023-05-20T09:46:12.011Z,99324.83
2023-05-20T09:48:39.106Z,99326.23
2023-05-20T09:51:06.963Z,99316.88
2023-05-20T09:53:34.132Z,99310.13
2023-05-20T09:56:01.271Z,99308.61
2023-05-20T09:58:28.964Z,99311.67
2023-05-20T10:00:56.035Z,99310.10
2023-05-20T10:03:28.436Z,99303.94
2023-05-20T10:06:00.122Z,99307.86
2023-05-20T10:08:57.713Z,99309.80
2023-05-20T10:11:45.190Z,99306.41
2023-05-20T10:15:06.835Z,99309.25
2023-05-20T10:17:57.619Z,99306.08
2023-05-20T10:20:26.478Z,99302.86
2023-05-20T10:22:58.027Z,99303.34
2023-05-20T10:25:28.499Z,99307.36
2023-05-20T10:28:08.075Z,99305.45
2023-05-20T10:30:36.177Z,99302.19
2023-05-20T10:33:05.881Z,99297.86
2023-05-20T10:35:33.162Z,99291.52
2023-05-20T10:38:09.727Z,99293.83
2023-05-20T10:40:37.251Z,99290.05
2023-05-20T10:43:11.731Z,99289.45
2023-05-20T10:46:30.804Z,99285.44
2023-05-20T10:49:03.255Z,99286.81
2023-05-20T10:51:33.451Z,99288.20
2023-05-20T10:54:00.611Z,99287.13
2023-05-20T10:56:27.887Z,99284.64
2023-05-20T10:58:56.230Z,99277.11
2023-05-20T11:01:25.471Z,99275.34
2023-05-20T11:03:54.471Z,99265.33
2023-05-20T11:06:28.048Z,99264.25
2023-05-20T11:08:56.146Z,99264.02
2023-05-20T11:11:25.538Z,99268.31
2023-05-20T11:13:53.124Z,99268.36
2023-05-20T11:16:24.226Z,99266.70
2023-05-20T11:18:51.669Z,99263.45
2023-05-20T11:21:19.704Z,99258.75
2023-05-20T11:23:47.201Z,99261.58
2023-05-20T11:26:14.312Z,99259.20
2023-05-20T11:28:42.053Z,99256.38
2023-05-20T11:31:09.028Z,99259.41
2023-05-20T11:33:36.409Z,99253.66
2023-05-20T11:36:08.517Z,99251.66
2023-05-20T11:38:38.406Z,99247.15
2023-05-20T11:41:06.135Z,99245.12
2023-05-20T11:43:33.824Z,99241.69
2023-05-20T11:46:02.899Z,99238.73
2023-05-20T11:48:30.173Z,99241.34
2023-05-20T11:50:58.113Z,99240.94
2023-05-20T11:53:26.414Z,99237.53
2023-05-20T11:55:57.850Z,99230.70
2023-05-20T11:58:30.286Z,99232.61
2023-05-20T12:01:05.784Z,99222.02
2023-05-20T12:03:41.246Z,99234.45
2023-05-20T12:06:08.685Z,99229.73
2023-05-20T12:08:37.977Z,99226.89
2023-05-20T12:11:05.145Z,99223.10
2023-05-20T12:13:34.951Z,99229.23
2023-05-20T12:16:02.286Z,99228.56
2023-05-20T12:18:29.613Z,99230.14
2023-05-20T12:20:56.686Z,99230.42
2023-05-20T12:23:24.119Z,99226.38
2023-05-20T12:25:51.212Z,99222.42
2023-05-20T12:28:18.730Z,99219.80
2023-05-20T12:30:45.659Z,99224.73
2023-05-20T12:33:12.766Z,99217.44
2023-05-20T12:35:40.981Z,99207.09
2023-05-20T12:38:08.245Z,99207.74
2023-05-20T12:40:35.877Z,99206.60
2023-05-20T12:43:04.347Z,99202.98
2023-05-20T12:45:32.979Z,99197.80
2023-05-20T12:48:00.487Z,99202.23
2023-05-20T12:50:27.955Z,99199.80
2023-05-20T12:52:54.909Z,99195.79
2023-05-20T12:55:22.365Z,99192.73
2023-05-20T12:57:49.803Z,99185.05
2023-05-20T13:00:17.263Z,99182.84
2023-05-20T13:02:44.545Z,99180.58
2023-05-20T13:05:11.851Z,99181.52
2023-05-20T13:07:39.147Z,99178.53
2023-05-20T13:10:07.561Z,99172.85
2023-05-20T13:12:35.182Z,99173.88
2023-05-20T13:15:02.308Z,99171.39
2023-05-20T13:17:29.667Z,99168.16
2023-05-20T13:19:56.784Z,99163.89
2023-05-20T13:22:23.976Z,99160.24
2023-05-20T13:24:51.111Z,99151.58
2023-05-20T13:27:18.779Z,99145.53
2023-05-20T13:29:48.436Z,99147.29
2023-05-20T13:32:16.716Z,99152.60
2023-05-20T13:34:43.857Z,99153.58
2023-05-20T13:37:10.855Z,99151.31
2023-05-20T13:41:37.778Z,99142.08
2023-05-20T13:44:05.409Z,99141.06
2023-05-20T13:46:32.550Z,99144.23
2023-05-20T13:48:59.617Z,99145.88
2023-05-20T13:51:26.640Z,99136.89
2023-05-20T13:53:53.859Z,99128.88
2023-05-20T13:56:21.294Z,99126.06
2023-05-20T13:58:48.562Z,99119.09
2023-05-20T14:01:15.758Z,99117.67
2023-05-20T14:03:43.139Z,99118.61
2023-05-20T14:06:10.675Z,99119.02
2023-05-20T14:08:38.938Z,99116.11
2023-05-20T14:11:06.232Z,99118.02
2023-05-20T14:13:34.629Z,99116.31
2023-05-20T14:16:01.822Z,99114.42
2023-05-20T14:18:29.003Z,99111.17
2023-05-20T14:20:56.880Z,99106.74
2023-05-20T14:23:23.948Z,99102.23
2023-05-20T14:25:51.098Z,99110.59
2023-05-20T14:28:18.113Z,99112.19
2023-05-20T14:30:45.160Z,99112.78
2023-05-20T14:33:12.331Z,99109.71
2023-05-20T14:35:39.416Z,99108.87
2023-05-20T14:38:07.003Z,99106.98
2023-05-20T14:40:34.977Z,99110.27
2023-05-20T14:43:02.295Z,99108.98
2023-05-20T14:45:29.400Z,99114.04
2023-05-20T14:47:56.635Z,99114.40
2023-05-20T14:50:24.663Z,99113.59
2023-05-20T14:52:51.597Z,99107.27
2023-05-20T14:55:19.081Z,99103.77
2023-05-20T14:57:46.375Z,99099.46
2023-05-20T15:00:13.812Z,99097.51
2023-05-20T15:02:41.712Z,99103.14
2023-05-20T15:05:12.181Z,99100.98
2023-05-20T15:07:39.893Z,99101.02
2023-05-20T15:10:07.952Z,99098.70
2023-05-20T15:12:35.631Z,99100.52
2023-05-20T15:15:03.216Z,99098.37
2023-05-20T15:17:31.101Z,99094.38
2023-05-20T15:19:58.600Z,99097.63
2023-05-20T15:22:25.764Z,99095.23
2023-05-20T15:24:52.817Z,99095.30
2023-05-20T15:27:19.877Z,99094.13
2023-05-20T15:29:46.921Z,99091.96
2023-05-20T15:32:13.927Z,99096.23
2023-05-20T15:34:40.969Z,99093.31
2023-05-20T15:37:08.134Z,99092.58
2023-05-20T15:39:37.333Z,99090.09
2023-05-20T15:42:05.361Z,99092.10
2023-05-20T15:44:32.632Z,99090.99
2023-05-20T15:47:00.834Z,99090.55
2023-05-20T15:49:27.923Z,99094.42
2023-05-20T15:52:02.942Z,99098.99
2023-05-20T15:54:32.263Z,99102.95
2023-05-20T15:56:59.280Z,99098.75
2023-05-20T15:59:26.675Z,99097.95
2023-05-20T16:01:53.741Z,99091.81
2023-05-20T16:04:21.049Z,99095.65
2023-05-20T16:06:48.236Z,99091.32
2023-05-20T16:09:15.423Z,99092.34
2023-05-20T16:11:42.411Z,99093.33
2023-05-20T16:14:09.512Z,99097.64
2023-05-20T16:16:37.284Z,99097.19
2023-05-20T16:19:04.532Z,99100.56
2023-05-20T16:21:31.726Z,99102.11
2023-05-20T16:23:59.033Z,99106.74
2023-05-20T16:26:26.318Z,99107.23
2023-05-20T16:28:53.538Z,99110.50
2023-05-20T16:31:21.365Z,99112.94
2023-05-20T16:33:48.399Z,99105.59
2023-05-20T16:36:15.590Z,99102.18
2023-05-20T16:38:42.756Z,99103.64
2023-05-20T16:41:10.389Z,99105.20
2023-05-20T16:43:37.395Z,99101.14
2023-05-20T16:46:05.140Z,99102.47
2023-05-20T16:48:33.010Z,99103.52
2023-05-20T16:50:59.960Z,99103.52
2023-05-20T16:53:27.553Z,99101.81
2023-05-20T16:55:55.060Z,99105.09
2023-05-20T16:58:22.695Z,99106.50
2023-05-20T17:00:49.796Z,99106.19
2023-05-20T17:03:18.100Z,99107.84
2023-05-20T17:05:46.104Z,99100.65
2023-05-20T17:08:13.189Z,99100.69
2023-05-20T17:10:40.730Z,99100.67
2023-05-20T17:13:07.826Z,99105.83
2023-05-20T17:15:37.386Z,99104.93
2023-05-20T17:18:04.474Z,99107.63
2023-05-20T17:20:32.246Z,99105.75
2023-05-20T17:22:59.650Z,99104.24
2023-05-20T17:25:26.681Z,99098.11
2023-05-20T17:27:53.640Z,99094.23
2023-05-20T17:30:20.683Z,99096.74
2023-05-20T17:32:47.937Z,99099.11
2023-05-20T17:35:15.138Z,99097.66
2023-05-20T17:37:42.232Z,99100.17
2023-05-20T17:40:09.983Z,99103.14
2023-05-20T17:42:37.553Z,99103.80
2023-05-20T17:45:05.562Z,99100.14
2023-05-20T17:47:33.091Z,99107.87
2023-05-20T17:50:02.409Z,99108.60
2023-05-20T17:52:29.800Z,99104.30
2023-05-20T17:54:57.397Z,99105.10
2023-05-20T17:57:24.376Z,99105.64
2023-05-20T17:59:51.407Z,99101.39
2023-05-20T18:02:18.348Z,99107.95
2023-05-20T18:04:45.680Z,99112.89
2023-05-20T18:07:13.341Z,99117.74
2023-05-20T18:09:41.117Z,99123.52
2023-05-20T18:12:08.348Z,99126.65
2023-05-20T18:14:35.983Z,99128.86
2023-05-20T18:17:03.007Z,99133.39
2023-05-20T18:19:30.170Z,99134.32
2023-05-20T18:21:58.628Z,99137.36
2023-05-20T18:24:26.019Z,99134.51
2023-05-20T18:26:53.201Z,99133.56
2023-05-20T18:29:20.217Z,99132.83
2023-05-20T18:31:47.214Z,99135.04
2023-05-20T18:34:16.396Z,99135.89
2023-05-20T18:36:43.819Z,99132.25
2023-05-20T18:39:14.192Z,99137.17
2023-05-20T18:41:47.249Z,99135.27
2023-05-20T18:44:15.313Z,99137.31
2023-05-20T18:46:42.849Z,99138.23
2023-05-20T18:49:10.693Z,99142.32
2023-05-20T18:51:38.574Z,99141.10
2023-05-20T18:54:05.944Z,99142.05
2023-05-20T18:56:34.150Z,99141.86
2023-05-20T18:59:01.753Z,99139.72
2023-05-20T19:01:29.002Z,99145.00
2023-05-20T19:03:56.237Z,99149.31
2023-05-20T19:06:23.664Z,99151.43
2023-05-20T19:08:50.866Z,99153.02
2023-05-20T19:11:18.090Z,99157.04
2023-05-20T19:13:45.558Z,99155.80
2023-05-20T19:16:12.637Z,99155.86
2023-05-20T19:18:40.073Z,99155.60
2023-05-20T19:21:08.426Z,99158.05
2023-05-20T19:23:35.952Z,99156.16
2023-05-20T19:26:03.065Z,99159.80
2023-05-20T19:28:30.622Z,99160.48
2023-05-20T19:30:57.917Z,99155.30
2023-05-20T19:33:25.601Z,99156.83
2023-05-20T19:35:53.066Z,99151.71
2023-05-20T19:38:20.184Z,99151.74
2023-05-20T19:40:47.889Z,99147.77
2023-05-20T19:43:15.188Z,99144.58
2023-05-20T19:45:42.383Z,99144.52
2023-05-20T19:48:09.709Z,99147.37
2023-05-20T19:50:37.561Z,99151.63
2023-05-20T19:53:07.382Z,99151.73
2023-05-20T19:55:35.876Z,99155.21
2023-05-20T19:58:03.546Z,99152.98
2023-05-20T20:00:30.724Z,99155.34
2023-05-20T20:02:59.440Z,99155.64
2023-05-20T20:05:26.610Z,99153.27
2023-05-20T20:07:53.781Z,99158.58
2023-05-20T20:10:20.872Z,99165.45
2023-05-20T20:12:48.899Z,99170.56
2023-05-20T20:15:17.111Z,99171.36
2023-05-20T20:17:46.119Z,99175.31
2023-05-20T20:20:14.243Z,99176.09
2023-05-20T20:22:41.882Z,99171.75
2023-05-20T20:25:09.123Z,99172.94
2023-05-20T20:27:36.390Z,99168.15
2023-05-20T20:30:04.049Z,99171.60
2023-05-20T20:32:33.092Z,99169.87
2023-05-20T20:35:01.328Z,99171.79
2023-05-20T20:37:28.387Z,99173.27
2023-05-20T20:39:55.710Z,99171.92
2023-05-20T20:42:22.919Z,99173.20
2023-05-20T20:44:52.641Z,99172.35
2023-05-20T20:47:19.583Z,99169.77
2023-05-20T20:49:46.598Z,99174.43
2023-05-20T20:52:13.824Z,99173.22
2023-05-20T20:54:43.123Z,99172.00
2023-05-20T20:57:11.726Z,99171.33
2023-05-20T20:59:39.888Z,99165.81
2023-05-20T21:02:07.579Z,99164.30
2023-05-20T21:04:35.914Z,99164.52
2023-05-20T21:07:03.141Z,99159.86
2023-05-20T21:09:30.318Z,99166.20
2023-05-20T21:12:00.582Z,99165.40
2023-05-20T21:14:28.089Z,99166.63
2023-05-20T21:16:55.473Z,99168.08
2023-05-20T21:19:22.849Z,99168.11
2023-05-20T21:21:50.186Z,99166.82
2023-05-20T21:24:17.597Z,99163.31
2023-05-20T21:26:44.555Z,99167.36
2023-05-20T21:29:12.322Z,99166.09
2023-05-20T21:31:39.498Z,99163.17
2023-05-20T21:34:07.227Z,99164.48
2023-05-20T21:36:34.624Z,99160.27
2023-05-20T21:39:01.781Z,99163.11
2023-05-20T21:41:28.980Z,99164.51
2023-05-20T21:43:56.183Z,99162.38
2023-05-20T21:46:23.558Z,99163.50
2023-05-20T21:48:51.058Z,99166.06
2023-05-20T21:51:18.328Z,99166.39
2023-05-20T21:53:45.348Z,99164.89
2023-05-20T21:56:12.640Z,99165.05
2023-05-20T21:58:41.760Z,99167.13
2023-05-20T22:01:12.059Z,99163.86
2023-05-20T22:03:40.237Z,99160.35
2023-05-20T22:06:07.777Z,99160.23
2023-05-20T22:08:35.117Z,99162.89
2023-05-20T22:11:08.022Z,99157.57
2023-05-20T22:13:35.589Z,99160.27
2023-05-20T22:16:05.062Z,99162.80
2023-05-20T22:18:32.343Z,99168.20
2023-05-20T22:21:00.247Z,99166.34
2023-05-20T22:23:27.879Z,99168.58
2023-05-20T22:25:55.479Z,99167.02
2023-05-20T22:28:23.768Z,99171.06
2023-05-20T22:30:51.690Z,99172.38
2023-05-20T22:33:18.864Z,99170.66
2023-05-20T22:35:46.111Z,99162.27
2023-05-20T22:38:13.240Z,99160.73
2023-05-20T22:40:40.302Z,99165.22
2023-05-20T22:43:07.373Z,99163.83
2023-05-20T22:45:34.854Z,99165.89
2023-05-20T22:48:03.781Z,99164.46
2023-05-20T22:50:31.018Z,99168.80
2023-05-20T22:52:58.131Z,99165.15
2023-05-20T22:55:25.166Z,99161.65
2023-05-20T22:57:52.229Z,99160.40
2023-05-20T23:00:19.481Z,99155.98
2023-05-20T23:02:50.073Z,99161.40
2023-05-20T23:05:17.404Z,99160.45
2023-05-20T23:07:45.568Z,99154.64
2023-05-20T23:10:12.591Z,99149.19
2023-05-20T23:12:39.747Z,99147.35
2023-05-20T23:15:08.179Z,99147.15
2023-05-20T23:17:35.461Z,99149.48
2023-05-20T23:20:05.687Z,99154.41
2023-05-20T23:22:33.465Z,99153.86
2023-05-20T23:25:02.388Z,99152.59
2023-05-20T23:27:29.604Z,99150.57
2023-05-20T23:29:56.586Z,99154.53
2023-05-20T23:32:23.666Z,99156.35
2023-05-20T23:34:53.003Z,99150.77
2023-05-20T23:37:20.394Z,99149.32
2023-05-20T23:39:47.984Z,99141.50
2023-05-20T23:42:14.999Z,99142.15
2023-05-20T23:44:45.202Z,99136.66
2023-05-20T23:47:13.742Z,99139.80
2023-05-20T23:49:41.770Z,99138.27
2023-05-20T23:52:08.821Z,99141.81
2023-05-20T23:54:35.917Z,99146.51
2023-05-20T23:57:02.992Z,99145.15
2023-05-20T23:59:30.492Z,99140.91
